Dorothy Ann — WDE8761 — position and weather

sailwx.info

Track history (hours):
 
Tides and Currents Weather Stations Pressure Air Temp Water Temp Dewpoint Dewpoint Depression Visibility Wind Speed Wind Dir Waves Ship Positions

Dorothy Ann

Owner: THE INTERLAKE STEAMSHIP COMPANY, Middleburg Heights, OH. More information available from US FCC via Universal Licensing System and Coast Guard Vessel Documentation Center.

Last reported at 2016-Sep-26 09:00 UTC. Time now 2016-Sep-27 03:37 UTC.
Position N 41°42' W 082°12'.

Length 215 m; draft 6.2 m.

Type: Cargo ship. MMSI: 367409260.

Wind from 180 at 23 knots

Barometer 1012.7 mb
Air temperature 20.6 ° C
Water temperature 42.6 ° C

Date/timePositionNaut miles runAvg speedWind from/ knotsBaromVisibWave heightAir tempDewpointWater temp
2016-Sep-26 09:00N 41°42' W 082°12'9 9.0 180 / 231012.7 20.6 42.6
2016-Sep-26 08:00N 41°42' W 082°00'1110.8 170 / 221013.7 20.3 42.6
2016-Sep-26 07:00N 41°36' W 081°48'7 7.5 160 / 241015.1 18.8 42.6
2016-Sep-26 06:00N 41°30' W 081°42'0 0.0 150 / 171016.4 17.8 42.6
2016-Sep-26 05:00N 41°30' W 081°42'0 0.0 100 / 41017.4 17.6 42.6
2016-Sep-26 03:00N 41°30' W 081°42'0 0.0 130 / 41017.8 18.5 42.6
2016-Sep-26 02:00N 41°30' W 081°42'0 0.0 130 / 51018.5 19.1 42.6
2016-Sep-26 01:00N 41°30' W 081°42'0 0.0 150 / 31018.5 20.2 42.6
2016-Sep-26 00:00N 41°30' W 081°42'0 0.0 120 / 31018.8 20.4 42.6
2016-Sep-25 23:00N 41°30' W 081°42'0 0.0 100 / 41019.1 21.2 42.6
2016-Sep-25 22:00N 41°30' W 081°42'0 0.0 010 / 41019.8 22.0 42.6
2016-Sep-25 21:00N 41°30' W 081°42'0 0.0 050 / 171019.8 20.4 42.6
2016-Sep-25 20:00N 41°30' W 081°42'0 0.0 050 / 161020.8 19.5 42.6
2016-Sep-25 19:00N 41°30' W 081°42'0 0.0 030 / 141021.2 18.8 42.6
2016-Sep-25 18:00N 41°30' W 081°42'0 0.0 020 / 121022.2 19.6 42.6
2016-Sep-25 17:00N 41°30' W 081°42'0 0.0 060 / 61022.2 20.6 42.6
2016-Sep-25 16:00N 41°30' W 081°42'0 0.0 120 / 31022.9 20.3 42.6
2016-Sep-25 15:00N 41°30' W 081°42'0 0.0 130 / 71023.5 18.2 42.6
2016-Sep-25 14:00N 41°30' W 081°42'0 0.0 170 / 61023.5 16.3 42.6
2016-Sep-25 13:00N 41°30' W 081°42'0 0.0 170 / 71023.5 14.4 42.6
2016-Sep-25 12:00N 41°30' W 081°42'0 0.0 150 / 71023.2 12.6 42.6
2016-Sep-25 11:00N 41°30' W 081°42'0 0.0 130 / 61023.2 13.1 42.6
2016-Sep-25 10:00N 41°30' W 081°42'0 0.0 140 / 61023.2 13.1 42.6
2016-Sep-25 09:00N 41°30' W 081°42'0 0.0 130 / 51023.2 13.3 42.6
2016-Sep-25 08:00N 41°30' W 081°42'0 0.0 160 / 31023.2 14.0 42.6
2016-Sep-25 07:00N 41°30' W 081°42'0 0.0 110 / 51023.5 13.7 42.6
2016-Sep-25 06:00N 41°30' W 081°42'0 0.0 140 / 31023.9 13.9 42.6
2016-Sep-25 05:00N 41°30' W 081°42'0 0.0 120 / 51023.5 14.3 42.6
2016-Sep-25 03:00N 41°30' W 081°42'0 0.0 120 / 61023.5 15.4 42.6
2016-Sep-25 02:00N 41°30' W 081°42'0 0.0 130 / 41023.5 16.0 42.6
2016-Sep-25 01:00N 41°30' W 081°42'0 0.0 080 / 21023.5 16.8 42.6
2016-Sep-25 00:00N 41°30' W 081°42'0 0.0 050 / 51023.2 17.1 42.6
2016-Sep-24 23:00N 41°30' W 081°42'0 0.0 360 / 41023.2 18.3 42.6
2016-Sep-24 22:00N 41°30' W 081°42'0 0.0 050 / 171022.5 18.1 42.6
2016-Sep-24 21:00N 41°30' W 081°42'0 0.0 050 / 191022.9 18.3 42.6
2016-Sep-24 20:00N 41°30' W 081°42'0 0.0 040 / 181022.9 18.6 42.6
2016-Sep-24 19:00N 41°30' W 081°42'0 0.0 030 / 191022.9 18.5 42.6
2016-Sep-24 18:00N 41°30' W 081°42'0 0.0 030 / 181023.2 18.8 42.6
2016-Sep-24 17:00N 41°30' W 081°42'0 0.0 050 / 161023.5 19.0 42.6
2016-Sep-24 16:00N 41°30' W 081°42'0 0.0 040 / 151023.9 19.0 42.6
2016-Sep-24 15:00N 41°30' W 081°42'0 0.0 060 / 61023.9 19.4 42.6
2016-Sep-24 14:00N 41°30' W 081°42'0 0.0 090 / 81023.5 19.4 42.6
2016-Sep-24 13:00N 41°30' W 081°42'0 0.0 080 / 61023.2 19.2 42.6
2016-Sep-24 12:00N 41°30' W 081°42'0 0.0 090 / 71022.9 19.4 42.6
2016-Sep-24 11:00N 41°30' W 081°42'0 0.0 080 / 71022.2 19.0 42.6
2016-Sep-24 10:00N 41°30' W 081°42'0 0.0 100 / 51021.2 19.7 42.6
2016-Sep-24 09:00N 41°30' W 081°42'0 0.0 090 / 61020.8 19.7 42.6
2016-Sep-24 08:00N 41°30' W 081°42'0 0.0 060 / 31020.8 19.5 42.6
2016-Sep-24 07:00N 41°30' W 081°42'0 0.0 120 / 31020.8 19.3 42.6
2016-Sep-24 06:00N 41°30' W 081°42'0 0.0 080 / 51020.5 19.9 42.6
2016-Sep-24 05:00N 41°30' W 081°42'0 0.0 050 / 71020.5 19.8 42.6
2016-Sep-24 03:00N 41°30' W 081°42'0 0.0 060 / 81019.8 20.7 42.6
2016-Sep-24 02:00N 41°30' W 081°42'0 0.0 050 / 71019.5 21.3 42.6
2016-Sep-24 01:00N 41°30' W 081°42'0 0.0 060 / 61019.1 21.9 42.6
2016-Sep-24 00:00N 41°30' W 081°42'0 0.0 040 / 71018.5 22.3 42.6
2016-Sep-23 23:00N 41°30' W 081°42'0 0.0 040 / 101018.1 22.8 42.6
2016-Sep-23 22:00N 41°30' W 081°42'0 0.0 040 / 61018.1 24.3 42.6
2016-Sep-23 21:00N 41°30' W 081°42'0 0.0 260 / 51017.8 25.0 42.6
2016-Sep-23 20:00N 41°30' W 081°42'1110.8 020 / 61017.4 24.5 42.6
2016-Sep-23 19:00N 41°36' W 081°54'1110.8 360 / 91018.1 25.2 42.6
2016-Sep-23 18:00N 41°42' W 082°06'9 9.0 310 / 61018.8 24.0 42.6
2016-Sep-23 17:00N 41°42' W 082°18'40 8.0 340 / 31018.8 23.8 42.6
2016-Sep-23 12:00N 42°00' W 083°06'1212.0 060 / 11018.5 21.8 42.6
2016-Sep-23 11:00N 42°12' W 083°06'7 7.5 330 / 51018.6 21.3 42.6
2016-Sep-23 10:00N 42°18' W 083°00'1110.7 320 / 31017.5 22.4 42.6
2016-Sep-23 09:00N 42°24' W 082°48'7 7.5 280 / 61017.2 23.2 42.6
2016-Sep-23 08:00N 42°30' W 082°42'1110.7 280 / 41016.9 23.0 42.6
2016-Sep-23 07:00N 42°36' W 082°30'1212.0 210 / 21017.4 21.3 42.6
2016-Sep-23 06:00N 42°48' W 082°30'1312.8 270 / 41017.4 21.3 42.6
2016-Sep-23 05:00N 43°00' W 082°24'18 9.0 290 / 51017.4 22.5 42.6
2016-Sep-23 03:00N 43°18' W 082°24'6 6.0 260 / 81017.4 22.7 42.6
2016-Sep-23 02:00N 43°24' W 082°24'132 9.4 210 / 111017.1 23.9 42.6
2016-Sep-22 12:00N 45°30' W 083°18'1010.3 130 / 131018.4 18.5 42.6
2016-Sep-22 11:00N 45°36' W 083°30'1010.3 100 / 151018.4 18.0 42.6
2016-Sep-22 10:00N 45°42' W 083°42'1010.3 110 / 11020.4 17.9 42.6
2016-Sep-22 09:00N 45°48' W 083°54'8 8.4 010 / 11020.1 17.6 42.6
2016-Sep-22 08:00N 45°48' W 084°06'1312.7 120 / 61020.1 17.4 42.6
2016-Sep-22 07:00N 46°00' W 084°12'4 4.2 040 / 91019.8 15.3 42.6
2016-Sep-22 06:00N 46°00' W 084°18'0 0.0 1020.8 15.8 42.6
2016-Sep-22 05:00N 46°00' W 084°18'1 3.2 360 / 71021.5 15.9 42.6
2016-Sep-22 04:33N 45°59' W 084°17'0 0.0
2016-Sep-22 03:30N 45°59' W 084°17'1 2.8
2016-Sep-22 03:00N 46°00' W 084°18'1514.6 1021.1 16.5 42.6
2016-Sep-22 02:00N 45°48' W 084°06'7 7.3 010 / 91020.4 18.9 42.6
2016-Sep-22 01:00N 45°42' W 084°00'4 9.7 110 / 61020.1 18.6 42.6
2016-Sep-22 00:33N 45°38' W 083°57'3 5.5
2016-Sep-22 00:00N 45°36' W 083°54'715.1 060 / 51020.8 18.7 42.6
2016-Sep-21 23:34N 45°30' W 083°50'611.0
2016-Sep-21 23:00N 45°24' W 083°48'0 0.0 140 / 51020.4 20.0 42.6
2016-Sep-21 22:00N 45°24' W 083°48'0 0.0 120 / 31020.8 20.2 42.6
2016-Sep-21 21:00N 45°24' W 083°48'0 0.0 060 / 71020.8 19.0 42.6
2016-Sep-21 20:00N 45°24' W 083°48'0 0.0 080 / 71020.4 18.8 42.6
2016-Sep-21 19:00N 45°24' W 083°48'0 0.0 070 / 81021.1 18.7 42.6
2016-Sep-21 18:00N 45°24' W 083°48'0 0.0 060 / 101021.5 19.1 42.6
2016-Sep-21 17:00N 45°24' W 083°48'0 0.0 160 / 51022.1 21.5 42.6
2016-Sep-21 16:00N 45°24' W 083°48'0 0.0 160 / 31022.5 20.5 42.6
2016-Sep-21 15:00N 45°24' W 083°48'0 0.0 250 / 21022.5 19.4 42.6
2016-Sep-21 14:00N 45°24' W 083°48'0 0.0 220 / 61022.1 18.1 42.6
2016-Sep-21 13:00N 45°24' W 083°48'4 4.2 210 / 71022.1 16.8 42.6
2016-Sep-21 12:00N 45°24' W 083°42'1312.6 280 / 61021.8 17.0 42.6
2016-Sep-21 11:00N 45°24' W 083°24'7 7.3 270 / 91021.8 17.7 42.6
2016-Sep-21 10:00N 45°18' W 083°18'1514.7 240 / 111021.5 18.4 42.6
2016-Sep-21 09:00N 45°06' W 083°06'6 6.0 250 / 101021.5 18.6 42.6
2016-Sep-21 08:00N 45°00' W 083°06'1212.0 240 / 41021.1 19.4 42.6
2016-Sep-21 07:00N 44°48' W 083°06'7 7.4 210 / 71021.8 18.4 42.6
2016-Sep-21 06:00N 44°42' W 083°12'1212.0 210 / 91021.8 18.2 42.6
2016-Sep-21 05:00N 44°30' W 083°12'2010.0 230 / 101022.1 19.3 42.6
2016-Sep-21 03:00N 44°12' W 083°24'7 7.4 210 / 121021.8 21.6 42.6
2016-Sep-21 02:00N 44°06' W 083°30'1312.8 210 / 101021.8 21.8 42.6
2016-Sep-21 01:00N 43°54' W 083°36'7 7.4 210 / 121021.8 23.9 42.6
2016-Sep-21 00:00N 43°48' W 083°42'7 7.4 200 / 81021.8 23.4 42.6
2016-Sep-20 23:00N 43°42' W 083°48'6 6.0 170 / 61021.8 24.4 42.6
2016-Sep-20 22:00N 43°36' W 083°48'4 4.3 140 / 21021.8 26.4 42.6
2016-Sep-20 21:00N 43°36' W 083°54'0 0.0 290 / 41021.8 26.4 42.6
2016-Sep-20 20:00N 43°36' W 083°54'6 6.0 300 / 61021.8 25.5 42.6
2016-Sep-20 19:00N 43°30' W 083°54'0 0.0 300 / 61022.5 25.0 42.6
2016-Sep-20 18:00N 43°30' W 083°54'0 0.0 040 / 41022.1 24.5 42.6
2016-Sep-20 17:00N 43°30' W 083°54'0 0.0 160 / 21022.5 24.6 42.6
2016-Sep-20 16:00N 43°30' W 083°54'0 0.0 350 / 21022.5 24.5 42.6
2016-Sep-20 15:00N 43°30' W 083°54'0 0.0 070 / 21022.5 22.3 42.6
2016-Sep-20 14:00N 43°30' W 083°54'0 0.0 340 / 61022.5 20.3 42.6
2016-Sep-20 13:00N 43°30' W 083°54'6 6.0 290 / 41021.8 18.6 42.6
2016-Sep-20 12:00N 43°36' W 083°54'0 0.0 280 / 31021.5 19.2 42.6
2016-Sep-20 11:00N 43°36' W 083°54'0 0.0 280 / 31020.8 18.1 42.6
2016-Sep-20 10:00N 43°36' W 083°54'0 0.0 280 / 21020.1 18.8 42.6
2016-Sep-20 09:00N 43°36' W 083°54'4 4.3 290 / 41019.8 20.0 42.6
2016-Sep-20 08:00N 43°36' W 083°48'6 6.0 250 / 71019.1 20.3 42.6
2016-Sep-20 07:00N 43°42' W 083°48'7 7.4 270 / 131018.8 20.8 42.6
2016-Sep-20 06:00N 43°48' W 083°42'7 7.4 270 / 161018.1 21.4 42.6
2016-Sep-20 05:00N 43°54' W 083°36'2010.0 260 / 161017.4 22.3 42.6
2016-Sep-20 03:00N 44°12' W 083°24'7 7.4 230 / 151016.4 22.6 42.6
2016-Sep-20 02:00N 44°18' W 083°18'7 7.4 260 / 101016.4 22.7 42.6
2016-Sep-20 01:00N 44°24' W 083°12'6 6.0 260 / 141016.4 22.5 42.6
2016-Sep-20 00:00N 44°30' W 083°12'1212.0 280 / 131014.7 22.6 42.6
2016-Sep-19 23:00N 44°42' W 083°12'7 7.4 220 / 171014.3 27.1 42.6
2016-Sep-19 22:00N 44°48' W 083°06'6 6.0 210 / 201013.7 23.5 42.6
2016-Sep-19 21:00N 44°54' W 083°06'1212.0 190 / 311012.0 22.3 42.6
2016-Sep-19 20:00N 45°06' W 083°06'7 7.3 190 / 261012.0 21.3 42.6
2016-Sep-19 19:00N 45°12' W 083°12'7 7.3 180 / 221013.0 23.0 42.6
2016-Sep-19 18:00N 45°18' W 083°18'7 7.3 230 / 201013.3 25.6 42.6
2016-Sep-19 17:00N 45°24' W 083°24'7 7.3 210 / 201013.0 24.0 42.6
2016-Sep-19 16:00N 45°30' W 083°30'7 7.3 220 / 221013.0 21.7 42.6
2016-Sep-19 15:00N 45°36' W 083°36'7 7.3 220 / 201013.3 19.7 42.6
2016-Sep-19 14:00N 45°42' W 083°42'1312.7 220 / 231013.0 19.2 42.6
2016-Sep-19 13:00N 45°54' W 083°48'7 7.3 200 / 221012.7 18.5 42.6
2016-Sep-19 12:00N 46°00' W 083°54'0 0.0 180 / 161013.0 18.1 42.6
2016-Sep-19 11:00N 46°00' W 083°54'0 0.0 150 / 111013.0 17.4 42.6
2016-Sep-19 10:00N 46°00' W 083°54'1 2.5 170 / 91013.7 17.8 42.6
2016-Sep-19 09:31N 45°59' W 083°53'1 2.3
2016-Sep-19 09:00N 46°00' W 083°54'0 0.0 180 / 101014.0 17.9 42.6
2016-Sep-19 08:00N 46°00' W 083°54'1 2.7 180 / 91014.3 17.9 42.6
2016-Sep-19 07:33N 45°59' W 083°53'1 2.1
2016-Sep-19 07:00N 46°00' W 083°54'1 2.7 140 / 71014.3 17.1 42.6
2016-Sep-19 06:33N 45°59' W 083°53'1 2.1
2016-Sep-19 06:00N 46°00' W 083°54'0 0.0 170 / 41015.0 17.5 42.6
2016-Sep-19 05:00N 46°00' W 083°54'2 0.6 190 / 81015.0 17.8 42.6
2016-Sep-19 02:10N 45°58' W 083°53'2 9.7
2016-Sep-19 02:00N 46°00' W 083°54'1312.7 210 / 41015.0 17.7 42.6
2016-Sep-19 01:00N 45°48' W 083°48'29 9.8 260 / 81014.3 18.4 42.6
2016-Sep-18 22:00N 45°24' W 083°24'1010.3 160 / 61014.0 18.9 42.6
2016-Sep-18 21:00N 45°18' W 083°12'1312.7 090 / 51014.0 18.8 42.6
2016-Sep-18 20:00N 45°06' W 083°06'6 6.0 160 / 101014.0 21.1 42.6
2016-Sep-18 19:00N 45°00' W 083°06'1312.7 140 / 71014.3 20.1 42.6
2016-Sep-18 18:00N 44°48' W 083°00'7 7.4 240 / 41014.3 20.2 42.6
2016-Sep-18 17:00N 44°42' W 082°54'1312.7 230 / 111014.7 20.9 42.6
2016-Sep-18 16:00N 44°30' W 082°48'19 9.3 240 / 111014.7 19.8 42.6
2016-Sep-18 14:00N 44°12' W 082°42'1312.8 250 / 121014.3 19.8 42.6
2016-Sep-18 13:00N 44°00' W 082°36'7 7.4 250 / 121014.0 19.0 42.6
2016-Sep-18 12:00N 43°54' W 082°30'1212.0 270 / 141014.0 18.1 42.6
2016-Sep-18 11:00N 43°42' W 082°30'1212.0 260 / 121014.0 18.3 42.6
2016-Sep-18 10:00N 43°30' W 082°30'6 6.0 260 / 131013.7 18.8 42.6
2016-Sep-18 09:00N 43°24' W 082°30'1312.8 260 / 131013.7 19.3 42.6
2016-Sep-18 08:00N 43°12' W 082°24'1212.0 240 / 121014.0 19.3 42.6
2016-Sep-18 07:00N 43°00' W 082°24'7 7.4 210 / 91014.0 19.1 42.6
2016-Sep-18 06:00N 42°54' W 082°30'6 6.0 220 / 61014.0 19.4 42.6
2016-Sep-18 05:00N 42°48' W 082°30'13 6.4 220 / 51014.3 19.5 42.6
2016-Sep-18 03:00N 42°36' W 082°36'7 7.5 220 / 121014.7 20.7 42.6
2016-Sep-18 02:00N 42°30' W 082°42'1110.7 210 / 141014.5 25.1 42.6
2016-Sep-18 01:00N 42°24' W 082°54'7 7.5 210 / 131014.5 23.3 42.6
2016-Sep-18 00:00N 42°18' W 083°00'4 4.4 200 / 101013.8 21.5 42.6
2016-Sep-17 23:00N 42°18' W 083°06'0 0.0 240 / 71013.1 22.6 42.6
2016-Sep-17 22:00N 42°18' W 083°06'0 0.0 240 / 71013.5 22.9 42.6
2016-Sep-17 21:00N 42°18' W 083°06'0 0.0 240 / 111013.5 22.3 42.6
2016-Sep-17 19:00N 42°18' W 083°06'0 0.0 190 / 61013.8 21.3 42.6
2016-Sep-17 18:00N 42°18' W 083°06'0 0.0 250 / 71013.8 21.2 42.6
2016-Sep-17 17:00N 42°18' W 083°06'0 0.0 220 / 91013.8 21.0 42.6
2016-Sep-17 16:00N 42°18' W 083°06'0 0.0 220 / 131014.5 20.9 42.6
2016-Sep-17 15:00N 42°18' W 083°06'0 0.0 200 / 131014.2 20.7 42.6
2016-Sep-17 14:00N 42°18' W 083°06'0 0.0 190 / 71013.8 21.1 42.6
2016-Sep-17 13:00N 42°18' W 083°06'0 0.0 200 / 51014.5 21.0 42.6
2016-Sep-17 12:00N 42°18' W 083°06'4 4.4 200 / 131014.8 20.5 42.6
2016-Sep-17 11:00N 42°18' W 083°00'1110.7 230 / 131014.5 20.7 42.6
2016-Sep-17 10:00N 42°24' W 082°48'1110.7 220 / 191014.5 21.1 42.6
2016-Sep-17 09:00N 42°30' W 082°36'7 7.5 210 / 131014.2 21.7 42.6
2016-Sep-17 08:00N 42°36' W 082°30'1212.0 200 / 101014.3 21.6 42.6
2016-Sep-17 07:00N 42°48' W 082°30'1312.8 180 / 121014.7 22.0 42.6
2016-Sep-17 06:00N 43°00' W 082°24'6 6.0 190 / 161014.7 22.3 42.6
2016-Sep-17 05:00N 43°06' W 082°24'18 9.0 170 / 201015.0 21.0 42.6
2016-Sep-17 03:00N 43°24' W 082°24'6 6.0 170 / 211016.0 20.8 42.6
2016-Sep-17 02:00N 43°30' W 082°24'1212.0 170 / 201016.4 21.4 42.6
2016-Sep-17 01:00N 43°42' W 082°24'6 6.0 160 / 211016.0 21.8 42.6
2016-Sep-17 00:00N 43°48' W 082°24'1212.0 170 / 211016.0 22.2 42.6
2016-Sep-16 23:00N 44°00' W 082°24'7 7.4 150 / 161016.4 21.6 42.6
2016-Sep-16 22:00N 44°06' W 082°30'7 7.4 160 / 201016.4 21.2 42.6
2016-Sep-16 21:00N 44°12' W 082°36'74 8.3 160 / 201017.1 20.1 42.6
2016-Sep-16 12:00N 45°18' W 083°24'0 0.0 200 / 151021.5 15.9 42.6
2016-Sep-16 11:00N 45°18' W 083°24'0 0.0 190 / 61021.8 14.2 42.6
2016-Sep-16 10:00N 45°18' W 083°24'0 0.0 200 / 101021.5 14.6 42.6
2016-Sep-16 09:00N 45°18' W 083°24'   210 / 51021.5 14.1 42.6
Track history (hours):
 
Tides and Currents Weather Stations Pressure Air Temp Water Temp Dewpoint Dewpoint Depression Visibility Wind Speed Wind Dir Waves Ship Positions

Dorothy Ann

Owner: THE INTERLAKE STEAMSHIP COMPANY, Middleburg Heights, OH. More information available from US FCC via Universal Licensing System and Coast Guard Vessel Documentation Center.

Last reported at 2016-Sep-26 09:00 UTC. Time now 2016-Sep-27 03:37 UTC.
Position N 41°42' W 082°12'.

Length 215 m; draft 6.2 m.

Type: Cargo ship. MMSI: 367409260.

Wind from 180 at 23 knots

Barometer 1012.7 mb
Air temperature 20.6 ° C
Water temperature 42.6 ° C

Date/timePositionNaut miles runAvg speedWind from/ knotsBaromVisibWave heightAir tempDewpointWater temp
2016-Sep-26 09:00N 41°42' W 082°12'9 9.0 180 / 231012.7 20.6 42.6
2016-Sep-26 08:00N 41°42' W 082°00'1110.8 170 / 221013.7 20.3 42.6
2016-Sep-26 07:00N 41°36' W 081°48'7 7.5 160 / 241015.1 18.8 42.6
2016-Sep-26 06:00N 41°30' W 081°42'0 0.0 150 / 171016.4 17.8 42.6
2016-Sep-26 05:00N 41°30' W 081°42'0 0.0 100 / 41017.4 17.6 42.6
2016-Sep-26 03:00N 41°30' W 081°42'0 0.0 130 / 41017.8 18.5 42.6
2016-Sep-26 02:00N 41°30' W 081°42'0 0.0 130 / 51018.5 19.1 42.6
2016-Sep-26 01:00N 41°30' W 081°42'0 0.0 150 / 31018.5 20.2 42.6
2016-Sep-26 00:00N 41°30' W 081°42'0 0.0 120 / 31018.8 20.4 42.6
2016-Sep-25 23:00N 41°30' W 081°42'0 0.0 100 / 41019.1 21.2 42.6
2016-Sep-25 22:00N 41°30' W 081°42'0 0.0 010 / 41019.8 22.0 42.6
2016-Sep-25 21:00N 41°30' W 081°42'0 0.0 050 / 171019.8 20.4 42.6
2016-Sep-25 20:00N 41°30' W 081°42'0 0.0 050 / 161020.8 19.5 42.6
2016-Sep-25 19:00N 41°30' W 081°42'0 0.0 030 / 141021.2 18.8 42.6
2016-Sep-25 18:00N 41°30' W 081°42'0 0.0 020 / 121022.2 19.6 42.6
2016-Sep-25 17:00N 41°30' W 081°42'0 0.0 060 / 61022.2 20.6 42.6
2016-Sep-25 16:00N 41°30' W 081°42'0 0.0 120 / 31022.9 20.3 42.6
2016-Sep-25 15:00N 41°30' W 081°42'0 0.0 130 / 71023.5 18.2 42.6
2016-Sep-25 14:00N 41°30' W 081°42'0 0.0 170 / 61023.5 16.3 42.6
2016-Sep-25 13:00N 41°30' W 081°42'0 0.0 170 / 71023.5 14.4 42.6
2016-Sep-25 12:00N 41°30' W 081°42'0 0.0 150 / 71023.2 12.6 42.6
2016-Sep-25 11:00N 41°30' W 081°42'0 0.0 130 / 61023.2 13.1 42.6
2016-Sep-25 10:00N 41°30' W 081°42'0 0.0 140 / 61023.2 13.1 42.6
2016-Sep-25 09:00N 41°30' W 081°42'0 0.0 130 / 51023.2 13.3 42.6
2016-Sep-25 08:00N 41°30' W 081°42'0 0.0 160 / 31023.2 14.0 42.6
2016-Sep-25 07:00N 41°30' W 081°42'0 0.0 110 / 51023.5 13.7 42.6
2016-Sep-25 06:00N 41°30' W 081°42'0 0.0 140 / 31023.9 13.9 42.6
2016-Sep-25 05:00N 41°30' W 081°42'0 0.0 120 / 51023.5 14.3 42.6
2016-Sep-25 03:00N 41°30' W 081°42'0 0.0 120 / 61023.5 15.4 42.6
2016-Sep-25 02:00N 41°30' W 081°42'0 0.0 130 / 41023.5 16.0 42.6
2016-Sep-25 01:00N 41°30' W 081°42'0 0.0 080 / 21023.5 16.8 42.6
2016-Sep-25 00:00N 41°30' W 081°42'0 0.0 050 / 51023.2 17.1 42.6
2016-Sep-24 23:00N 41°30' W 081°42'0 0.0 360 / 41023.2 18.3 42.6
2016-Sep-24 22:00N 41°30' W 081°42'0 0.0 050 / 171022.5 18.1 42.6
2016-Sep-24 21:00N 41°30' W 081°42'0 0.0 050 / 191022.9 18.3 42.6
2016-Sep-24 20:00N 41°30' W 081°42'0 0.0 040 / 181022.9 18.6 42.6
2016-Sep-24 19:00N 41°30' W 081°42'0 0.0 030 / 191022.9 18.5 42.6
2016-Sep-24 18:00N 41°30' W 081°42'0 0.0 030 / 181023.2 18.8 42.6
2016-Sep-24 17:00N 41°30' W 081°42'0 0.0 050 / 161023.5 19.0 42.6
2016-Sep-24 16:00N 41°30' W 081°42'0 0.0 040 / 151023.9 19.0 42.6
2016-Sep-24 15:00N 41°30' W 081°42'0 0.0 060 / 61023.9 19.4 42.6
2016-Sep-24 14:00N 41°30' W 081°42'0 0.0 090 / 81023.5 19.4 42.6
2016-Sep-24 13:00N 41°30' W 081°42'0 0.0 080 / 61023.2 19.2 42.6
2016-Sep-24 12:00N 41°30' W 081°42'0 0.0 090 / 71022.9 19.4 42.6
2016-Sep-24 11:00N 41°30' W 081°42'0 0.0 080 / 71022.2 19.0 42.6
2016-Sep-24 10:00N 41°30' W 081°42'0 0.0 100 / 51021.2 19.7 42.6
2016-Sep-24 09:00N 41°30' W 081°42'0 0.0 090 / 61020.8 19.7 42.6
2016-Sep-24 08:00N 41°30' W 081°42'0 0.0 060 / 31020.8 19.5 42.6
2016-Sep-24 07:00N 41°30' W 081°42'0 0.0 120 / 31020.8 19.3 42.6
2016-Sep-24 06:00N 41°30' W 081°42'0 0.0 080 / 51020.5 19.9 42.6
2016-Sep-24 05:00N 41°30' W 081°42'0 0.0 050 / 71020.5 19.8 42.6
2016-Sep-24 03:00N 41°30' W 081°42'0 0.0 060 / 81019.8 20.7 42.6
2016-Sep-24 02:00N 41°30' W 081°42'0 0.0 050 / 71019.5 21.3 42.6
2016-Sep-24 01:00N 41°30' W 081°42'0 0.0 060 / 61019.1 21.9 42.6
2016-Sep-24 00:00N 41°30' W 081°42'0 0.0 040 / 71018.5 22.3 42.6
2016-Sep-23 23:00N 41°30' W 081°42'0 0.0 040 / 101018.1 22.8 42.6
2016-Sep-23 22:00N 41°30' W 081°42'0 0.0 040 / 61018.1 24.3 42.6
2016-Sep-23 21:00N 41°30' W 081°42'0 0.0 260 / 51017.8 25.0 42.6
2016-Sep-23 20:00N 41°30' W 081°42'1110.8 020 / 61017.4 24.5 42.6
2016-Sep-23 19:00N 41°36' W 081°54'1110.8 360 / 91018.1 25.2 42.6
2016-Sep-23 18:00N 41°42' W 082°06'9 9.0 310 / 61018.8 24.0 42.6
2016-Sep-23 17:00N 41°42' W 082°18'40 8.0 340 / 31018.8 23.8 42.6
2016-Sep-23 12:00N 42°00' W 083°06'1212.0 060 / 11018.5 21.8 42.6
2016-Sep-23 11:00N 42°12' W 083°06'7 7.5 330 / 51018.6 21.3 42.6
2016-Sep-23 10:00N 42°18' W 083°00'1110.7 320 / 31017.5 22.4 42.6
2016-Sep-23 09:00N 42°24' W 082°48'7 7.5 280 / 61017.2 23.2 42.6
2016-Sep-23 08:00N 42°30' W 082°42'1110.7 280 / 41016.9 23.0 42.6
2016-Sep-23 07:00N 42°36' W 082°30'1212.0 210 / 21017.4 21.3 42.6
2016-Sep-23 06:00N 42°48' W 082°30'1312.8 270 / 41017.4 21.3 42.6
2016-Sep-23 05:00N 43°00' W 082°24'18 9.0 290 / 51017.4 22.5 42.6
2016-Sep-23 03:00N 43°18' W 082°24'6 6.0 260 / 81017.4 22.7 42.6
2016-Sep-23 02:00N 43°24' W 082°24'132 9.4 210 / 111017.1 23.9 42.6
2016-Sep-22 12:00N 45°30' W 083°18'1010.3 130 / 131018.4 18.5 42.6
2016-Sep-22 11:00N 45°36' W 083°30'1010.3 100 / 151018.4 18.0 42.6
2016-Sep-22 10:00N 45°42' W 083°42'1010.3 110 / 11020.4 17.9 42.6
2016-Sep-22 09:00N 45°48' W 083°54'8 8.4 010 / 11020.1 17.6 42.6
2016-Sep-22 08:00N 45°48' W 084°06'1312.7 120 / 61020.1 17.4 42.6
2016-Sep-22 07:00N 46°00' W 084°12'4 4.2 040 / 91019.8 15.3 42.6
2016-Sep-22 06:00N 46°00' W 084°18'0 0.0 1020.8 15.8 42.6
2016-Sep-22 05:00N 46°00' W 084°18'1 3.2 360 / 71021.5 15.9 42.6
2016-Sep-22 04:33N 45°59' W 084°17'0 0.0
2016-Sep-22 03:30N 45°59' W 084°17'1 2.8
2016-Sep-22 03:00N 46°00' W 084°18'1514.6 1021.1 16.5 42.6
2016-Sep-22 02:00N 45°48' W 084°06'7 7.3 010 / 91020.4 18.9 42.6
2016-Sep-22 01:00N 45°42' W 084°00'4 9.7 110 / 61020.1 18.6 42.6
2016-Sep-22 00:33N 45°38' W 083°57'3 5.5
2016-Sep-22 00:00N 45°36' W 083°54'715.1 060 / 51020.8 18.7 42.6
2016-Sep-21 23:34N 45°30' W 083°50'611.0
2016-Sep-21 23:00N 45°24' W 083°48'0 0.0 140 / 51020.4 20.0 42.6
2016-Sep-21 22:00N 45°24' W 083°48'0 0.0 120 / 31020.8 20.2 42.6
2016-Sep-21 21:00N 45°24' W 083°48'0 0.0 060 / 71020.8 19.0 42.6
2016-Sep-21 20:00N 45°24' W 083°48'0 0.0 080 / 71020.4 18.8 42.6
2016-Sep-21 19:00N 45°24' W 083°48'0 0.0 070 / 81021.1 18.7 42.6
2016-Sep-21 18:00N 45°24' W 083°48'0 0.0 060 / 101021.5 19.1 42.6
2016-Sep-21 17:00N 45°24' W 083°48'0 0.0 160 / 51022.1 21.5 42.6
2016-Sep-21 16:00N 45°24' W 083°48'0 0.0 160 / 31022.5 20.5 42.6
2016-Sep-21 15:00N 45°24' W 083°48'0 0.0 250 / 21022.5 19.4 42.6
2016-Sep-21 14:00N 45°24' W 083°48'0 0.0 220 / 61022.1 18.1 42.6
2016-Sep-21 13:00N 45°24' W 083°48'4 4.2 210 / 71022.1 16.8 42.6
2016-Sep-21 12:00N 45°24' W 083°42'1312.6 280 / 61021.8 17.0 42.6
2016-Sep-21 11:00N 45°24' W 083°24'7 7.3 270 / 91021.8 17.7 42.6
2016-Sep-21 10:00N 45°18' W 083°18'1514.7 240 / 111021.5 18.4 42.6
2016-Sep-21 09:00N 45°06' W 083°06'6 6.0 250 / 101021.5 18.6 42.6
2016-Sep-21 08:00N 45°00' W 083°06'1212.0 240 / 41021.1 19.4 42.6
2016-Sep-21 07:00N 44°48' W 083°06'7 7.4 210 / 71021.8 18.4 42.6
2016-Sep-21 06:00N 44°42' W 083°12'1212.0 210 / 91021.8 18.2 42.6
2016-Sep-21 05:00N 44°30' W 083°12'2010.0 230 / 101022.1 19.3 42.6
2016-Sep-21 03:00N 44°12' W 083°24'7 7.4 210 / 121021.8 21.6 42.6
2016-Sep-21 02:00N 44°06' W 083°30'1312.8 210 / 101021.8 21.8 42.6
2016-Sep-21 01:00N 43°54' W 083°36'7 7.4 210 / 121021.8 23.9 42.6
2016-Sep-21 00:00N 43°48' W 083°42'7 7.4 200 / 81021.8 23.4 42.6
2016-Sep-20 23:00N 43°42' W 083°48'6 6.0 170 / 61021.8 24.4 42.6
2016-Sep-20 22:00N 43°36' W 083°48'4 4.3 140 / 21021.8 26.4 42.6
2016-Sep-20 21:00N 43°36' W 083°54'0 0.0 290 / 41021.8 26.4 42.6
2016-Sep-20 20:00N 43°36' W 083°54'6 6.0 300 / 61021.8 25.5 42.6
2016-Sep-20 19:00N 43°30' W 083°54'0 0.0 300 / 61022.5 25.0 42.6
2016-Sep-20 18:00N 43°30' W 083°54'0 0.0 040 / 41022.1 24.5 42.6
2016-Sep-20 17:00N 43°30' W 083°54'0 0.0 160 / 21022.5 24.6 42.6
2016-Sep-20 16:00N 43°30' W 083°54'0 0.0 350 / 21022.5 24.5 42.6
2016-Sep-20 15:00N 43°30' W 083°54'0 0.0 070 / 21022.5 22.3 42.6
2016-Sep-20 14:00N 43°30' W 083°54'0 0.0 340 / 61022.5 20.3 42.6
2016-Sep-20 13:00N 43°30' W 083°54'6 6.0 290 / 41021.8 18.6 42.6
2016-Sep-20 12:00N 43°36' W 083°54'0 0.0 280 / 31021.5 19.2 42.6
2016-Sep-20 11:00N 43°36' W 083°54'0 0.0 280 / 31020.8 18.1 42.6
2016-Sep-20 10:00N 43°36' W 083°54'0 0.0 280 / 21020.1 18.8 42.6
2016-Sep-20 09:00N 43°36' W 083°54'4 4.3 290 / 41019.8 20.0 42.6
2016-Sep-20 08:00N 43°36' W 083°48'6 6.0 250 / 71019.1 20.3 42.6
2016-Sep-20 07:00N 43°42' W 083°48'7 7.4 270 / 131018.8 20.8 42.6
2016-Sep-20 06:00N 43°48' W 083°42'7 7.4 270 / 161018.1 21.4 42.6
2016-Sep-20 05:00N 43°54' W 083°36'2010.0 260 / 161017.4 22.3 42.6
2016-Sep-20 03:00N 44°12' W 083°24'7 7.4 230 / 151016.4 22.6 42.6
2016-Sep-20 02:00N 44°18' W 083°18'7 7.4 260 / 101016.4 22.7 42.6
2016-Sep-20 01:00N 44°24' W 083°12'6 6.0 260 / 141016.4 22.5 42.6
2016-Sep-20 00:00N 44°30' W 083°12'1212.0 280 / 131014.7 22.6 42.6
2016-Sep-19 23:00N 44°42' W 083°12'7 7.4 220 / 171014.3 27.1 42.6
2016-Sep-19 22:00N 44°48' W 083°06'6 6.0 210 / 201013.7 23.5 42.6
2016-Sep-19 21:00N 44°54' W 083°06'1212.0 190 / 311012.0 22.3 42.6
2016-Sep-19 20:00N 45°06' W 083°06'7 7.3 190 / 261012.0 21.3 42.6
2016-Sep-19 19:00N 45°12' W 083°12'7 7.3 180 / 221013.0 23.0 42.6
2016-Sep-19 18:00N 45°18' W 083°18'7 7.3 230 / 201013.3 25.6 42.6
2016-Sep-19 17:00N 45°24' W 083°24'7 7.3 210 / 201013.0 24.0 42.6
2016-Sep-19 16:00N 45°30' W 083°30'7 7.3 220 / 221013.0 21.7 42.6
2016-Sep-19 15:00N 45°36' W 083°36'7 7.3 220 / 201013.3 19.7 42.6
2016-Sep-19 14:00N 45°42' W 083°42'1312.7 220 / 231013.0 19.2 42.6
2016-Sep-19 13:00N 45°54' W 083°48'7 7.3 200 / 221012.7 18.5 42.6
2016-Sep-19 12:00N 46°00' W 083°54'0 0.0 180 / 161013.0 18.1 42.6
2016-Sep-19 11:00N 46°00' W 083°54'0 0.0 150 / 111013.0 17.4 42.6
2016-Sep-19 10:00N 46°00' W 083°54'1 2.5 170 / 91013.7 17.8 42.6
2016-Sep-19 09:31N 45°59' W 083°53'1 2.3
2016-Sep-19 09:00N 46°00' W 083°54'0 0.0 180 / 101014.0 17.9 42.6
2016-Sep-19 08:00N 46°00' W 083°54'1 2.7 180 / 91014.3 17.9 42.6
2016-Sep-19 07:33N 45°59' W 083°53'1 2.1
2016-Sep-19 07:00N 46°00' W 083°54'1 2.7 140 / 71014.3 17.1 42.6
2016-Sep-19 06:33N 45°59' W 083°53'1 2.1
2016-Sep-19 06:00N 46°00' W 083°54'0 0.0 170 / 41015.0 17.5 42.6
2016-Sep-19 05:00N 46°00' W 083°54'2 0.6 190 / 81015.0 17.8 42.6
2016-Sep-19 02:10N 45°58' W 083°53'2 9.7
2016-Sep-19 02:00N 46°00' W 083°54'1312.7 210 / 41015.0 17.7 42.6
2016-Sep-19 01:00N 45°48' W 083°48'29 9.8 260 / 81014.3 18.4 42.6
2016-Sep-18 22:00N 45°24' W 083°24'1010.3 160 / 61014.0 18.9 42.6
2016-Sep-18 21:00N 45°18' W 083°12'1312.7 090 / 51014.0 18.8 42.6
2016-Sep-18 20:00N 45°06' W 083°06'6 6.0 160 / 101014.0 21.1 42.6
2016-Sep-18 19:00N 45°00' W 083°06'1312.7 140 / 71014.3 20.1 42.6
2016-Sep-18 18:00N 44°48' W 083°00'7 7.4 240 / 41014.3 20.2 42.6
2016-Sep-18 17:00N 44°42' W 082°54'1312.7 230 / 111014.7 20.9 42.6
2016-Sep-18 16:00N 44°30' W 082°48'19 9.3 240 / 111014.7 19.8 42.6
2016-Sep-18 14:00N 44°12' W 082°42'1312.8 250 / 121014.3 19.8 42.6
2016-Sep-18 13:00N 44°00' W 082°36'7 7.4 250 / 121014.0 19.0 42.6
2016-Sep-18 12:00N 43°54' W 082°30'1212.0 270 / 141014.0 18.1 42.6
2016-Sep-18 11:00N 43°42' W 082°30'1212.0 260 / 121014.0 18.3 42.6
2016-Sep-18 10:00N 43°30' W 082°30'6 6.0 260 / 131013.7 18.8 42.6
2016-Sep-18 09:00N 43°24' W 082°30'1312.8 260 / 131013.7 19.3 42.6
2016-Sep-18 08:00N 43°12' W 082°24'1212.0 240 / 121014.0 19.3 42.6
2016-Sep-18 07:00N 43°00' W 082°24'7 7.4 210 / 91014.0 19.1 42.6
2016-Sep-18 06:00N 42°54' W 082°30'6 6.0 220 / 61014.0 19.4 42.6
2016-Sep-18 05:00N 42°48' W 082°30'13 6.4 220 / 51014.3 19.5 42.6
2016-Sep-18 03:00N 42°36' W 082°36'7 7.5 220 / 121014.7 20.7 42.6
2016-Sep-18 02:00N 42°30' W 082°42'1110.7 210 / 141014.5 25.1 42.6
2016-Sep-18 01:00N 42°24' W 082°54'7 7.5 210 / 131014.5 23.3 42.6
2016-Sep-18 00:00N 42°18' W 083°00'4 4.4 200 / 101013.8 21.5 42.6
2016-Sep-17 23:00N 42°18' W 083°06'0 0.0 240 / 71013.1 22.6 42.6
2016-Sep-17 22:00N 42°18' W 083°06'0 0.0 240 / 71013.5 22.9 42.6
2016-Sep-17 21:00N 42°18' W 083°06'0 0.0 240 / 111013.5 22.3 42.6
2016-Sep-17 19:00N 42°18' W 083°06'0 0.0 190 / 61013.8 21.3 42.6
2016-Sep-17 18:00N 42°18' W 083°06'0 0.0 250 / 71013.8 21.2 42.6
2016-Sep-17 17:00N 42°18' W 083°06'0 0.0 220 / 91013.8 21.0 42.6
2016-Sep-17 16:00N 42°18' W 083°06'0 0.0 220 / 131014.5 20.9 42.6
2016-Sep-17 15:00N 42°18' W 083°06'0 0.0 200 / 131014.2 20.7 42.6
2016-Sep-17 14:00N 42°18' W 083°06'0 0.0 190 / 71013.8 21.1 42.6
2016-Sep-17 13:00N 42°18' W 083°06'0 0.0 200 / 51014.5 21.0 42.6
2016-Sep-17 12:00N 42°18' W 083°06'4 4.4 200 / 131014.8 20.5 42.6
2016-Sep-17 11:00N 42°18' W 083°00'1110.7 230 / 131014.5 20.7 42.6
2016-Sep-17 10:00N 42°24' W 082°48'1110.7 220 / 191014.5 21.1 42.6
2016-Sep-17 09:00N 42°30' W 082°36'7 7.5 210 / 131014.2 21.7 42.6
2016-Sep-17 08:00N 42°36' W 082°30'1212.0 200 / 101014.3 21.6 42.6
2016-Sep-17 07:00N 42°48' W 082°30'1312.8 180 / 121014.7 22.0 42.6
2016-Sep-17 06:00N 43°00' W 082°24'6 6.0 190 / 161014.7 22.3 42.6
2016-Sep-17 05:00N 43°06' W 082°24'18 9.0 170 / 201015.0 21.0 42.6
2016-Sep-17 03:00N 43°24' W 082°24'6 6.0 170 / 211016.0 20.8 42.6
2016-Sep-17 02:00N 43°30' W 082°24'1212.0 170 / 201016.4 21.4 42.6
2016-Sep-17 01:00N 43°42' W 082°24'6 6.0 160 / 211016.0 21.8 42.6
2016-Sep-17 00:00N 43°48' W 082°24'1212.0 170 / 211016.0 22.2 42.6
2016-Sep-16 23:00N 44°00' W 082°24'7 7.4 150 / 161016.4 21.6 42.6
2016-Sep-16 22:00N 44°06' W 082°30'7 7.4 160 / 201016.4 21.2 42.6
2016-Sep-16 21:00N 44°12' W 082°36'74 8.3 160 / 201017.1 20.1 42.6
2016-Sep-16 12:00N 45°18' W 083°24'0 0.0 200 / 151021.5 15.9 42.6
2016-Sep-16 11:00N 45°18' W 083°24'0 0.0 190 / 61021.8 14.2 42.6
2016-Sep-16 10:00N 45°18' W 083°24'0 0.0 200 / 101021.5 14.6 42.6
2016-Sep-16 09:00N 45°18' W 083°24'   210 / 51021.5 14.1 42.6

Dump ship's entire track history